Time;durP1;ratioP1;P1;durP2;ratioP2;P2;SDS_P1;SDS_P2;PMS_P1;PMS_P2;Temp;Humidity;BMP_temperature;BMP_pressure;BME280_temperature;BME280_humidity;BME280_pressure;Samples;Min_cycle;Max_cycle;Signal;HPM_P1;HPM_P2
2024/01/22 00:01:28;;;;;;;10.18;5.75;;;;;;;;;;5081876;28;20386;-56
2024/01/22 00:03:54;;;;;;;12.05;5.55;;;;;;;;;;5088770;28;20493;-58
2024/01/22 00:06:20;;;;;;;13.13;6.07;;;;;;;;;;5091495;28;20389;-56
2024/01/22 00:08:46;;;;;;;11.98;5.88;;;;;;;;;;5085047;28;20387;-55
2024/01/22 00:11:12;;;;;;;10.68;5.55;;;;;;;;;;5089141;28;20787;-55
2024/01/22 00:13:38;;;;;;;10.60;5.32;;;;;;;;;;5072344;28;20403;-57
2024/01/22 00:16:04;;;;;;;8.60;5.07;;;;;;;;;;5085604;28;20391;-56
2024/01/22 00:18:30;;;;;;;9.98;5.40;;;;;;;;;;5081836;28;20961;-56
2024/01/22 00:20:56;;;;;;;11.23;5.40;;;;;;;;;;5071932;28;20387;-56
2024/01/22 00:23:22;;;;;;;10.75;5.45;;;;;;;;;;5090532;28;20413;-57
2024/01/22 00:25:48;;;;;;;11.23;5.47;;;;;;;;;;5090315;28;21176;-55
2024/01/22 00:28:14;;;;;;;10.82;5.55;;;;;;;;;;5078728;28;20388;-57
2024/01/22 00:30:40;;;;;;;9.33;5.40;;;;;;;;;;5084235;28;20390;-56
2024/01/22 00:33:06;;;;;;;8.50;5.10;;;;;;;;;;5090281;28;20420;-57
2024/01/22 00:35:32;;;;;;;9.70;5.33;;;;;;;;;;5090115;28;20455;-56
2024/01/22 00:37:58;;;;;;;10.43;5.45;;;;;;;;;;5089157;28;20482;-57
2024/01/22 00:40:24;;;;;;;8.48;5.00;;;;;;;;;;5084541;28;20375;-57
2024/01/22 00:42:50;;;;;;;11.00;5.93;;;;;;;;;;5086173;28;20370;-57
2024/01/22 00:45:16;;;;;;;10.30;5.35;;;;;;;;;;5087898;28;20421;-53
2024/01/22 00:47:42;;;;;;;9.95;5.07;;;;;;;;;;5086463;28;20486;-52
2024/01/22 00:50:08;;;;;;;9.60;5.43;;;;;;;;;;5061058;28;20391;-53
2024/01/22 00:52:34;;;;;;;10.30;5.07;;;;;;;;;;5070836;28;20515;-54
2024/01/22 00:55:00;;;;;;;11.68;4.97;;;;;;;;;;5081912;28;20370;-55
2024/01/22 00:57:26;;;;;;;9.73;4.95;;;;;;;;;;5089104;28;20462;-54
2024/01/22 00:59:52;;;;;;;8.73;5.10;;;;;;;;;;5085423;28;20759;-51
2024/01/22 01:02:18;;;;;;;9.13;4.78;;;;;;;;;;5074841;28;20413;-52
2024/01/22 01:04:44;;;;;;;8.48;5.00;;;;;;;;;;5090675;28;20389;-55
2024/01/22 01:07:12;;;;;;;11.13;5.43;;;;;;;;;;5089993;28;20464;-54
2024/01/22 01:09:38;;;;;;;7.13;4.85;;;;;;;;;;5088446;28;20381;-52
2024/01/22 01:12:04;;;;;;;7.93;4.60;;;;;;;;;;5090169;28;20406;-52
2024/01/22 01:14:30;;;;;;;9.80;4.72;;;;;;;;;;5089173;28;20837;-53
2024/01/22 01:16:57;;;;;;;9.50;4.70;;;;;;;;;;5089315;28;20894;-55
2024/01/22 01:19:23;;;;;;;10.73;4.70;;;;;;;;;;5089991;28;20374;-52
2024/01/22 01:21:49;;;;;;;9.55;5.05;;;;;;;;;;5071363;28;20384;-52
2024/01/22 01:24:15;;;;;;;9.60;4.90;;;;;;;;;;5087619;28;20386;-51
2024/01/22 01:26:41;;;;;;;11.40;5.00;;;;;;;;;;5089371;28;20382;-51
2024/01/22 01:29:08;;;;;;;9.32;4.70;;;;;;;;;;5088299;28;20389;-52
2024/01/22 01:31:34;;;;;;;11.20;4.90;;;;;;;;;;5070409;28;20399;-52
2024/01/22 01:34:00;;;;;;;11.27;5.00;;;;;;;;;;5066613;28;20413;-54
2024/01/22 01:36:26;;;;;;;10.50;4.93;;;;;;;;;;5087616;28;20515;-53
2024/01/22 01:38:51;;;;;;;8.97;4.50;;;;;;;;;;5086253;28;20377;-51
2024/01/22 01:41:17;;;;;;;7.70;4.60;;;;;;;;;;5073062;28;20435;-55
2024/01/22 01:43:43;;;;;;;9.13;4.75;;;;;;;;;;5081962;28;20410;-54
2024/01/22 01:46:09;;;;;;;7.47;3.92;;;;;;;;;;5088920;28;20398;-53
2024/01/22 01:48:36;;;;;;;9.60;5.38;;;;;;;;;;5088187;28;20390;-53
2024/01/22 01:51:02;;;;;;;10.05;4.50;;;;;;;;;;5084494;28;20428;-51
2024/01/22 01:53:29;;;;;;;8.68;4.45;;;;;;;;;;5080470;28;20387;-51
2024/01/22 01:55:55;;;;;;;8.33;4.43;;;;;;;;;;5079368;28;20412;-54
2024/01/22 01:58:22;;;;;;;9.82;4.40;;;;;;;;;;5075149;28;20458;-51
2024/01/22 02:00:51;;;;;;;10.60;4.37;;;;;;;;;;5079191;28;20478;-56
2024/01/22 02:03:17;;;;;;;7.10;4.38;;;;;;;;;;5091557;28;20408;-57
2024/01/22 02:05:43;;;;;;;9.25;4.53;;;;;;;;;;5082901;28;20398;-57
2024/01/22 02:08:09;;;;;;;6.60;4.30;;;;;;;;;;5092628;28;20890;-57
2024/01/22 02:10:35;;;;;;;7.28;3.90;;;;;;;;;;5093976;28;20386;-56
2024/01/22 02:13:04;;;;;;;8.02;4.10;;;;;;;;;;5093959;28;20412;-58
2024/01/22 02:15:30;;;;;;;11.05;4.70;;;;;;;;;;5092056;28;20810;-56
2024/01/22 02:18:00;;;;;;;9.18;4.32;;;;;;;;;;5092433;28;21235;-57
2024/01/22 02:20:26;;;;;;;7.18;4.22;;;;;;;;;;5093793;28;20406;-57
2024/01/22 02:22:52;;;;;;;9.80;3.80;;;;;;;;;;5084887;28;20387;-56
2024/01/22 02:25:18;;;;;;;7.47;4.40;;;;;;;;;;5073439;28;20796;-56
2024/01/22 02:27:44;;;;;;;7.80;4.00;;;;;;;;;;5080955;28;20765;-58
2024/01/22 02:30:10;;;;;;;8.25;3.97;;;;;;;;;;5092146;28;20446;-55
2024/01/22 02:32:36;;;;;;;8.93;4.43;;;;;;;;;;5092490;28;20405;-54
2024/01/22 02:35:02;;;;;;;8.80;4.00;;;;;;;;;;5092958;28;20469;-56
2024/01/22 02:37:28;;;;;;;5.65;3.47;;;;;;;;;;5093500;28;20458;-57
2024/01/22 02:39:54;;;;;;;7.82;4.13;;;;;;;;;;5092872;28;20473;-57
2024/01/22 02:42:20;;;;;;;11.60;3.97;;;;;;;;;;5092222;28;20406;-57
2024/01/22 02:44:46;;;;;;;5.70;3.50;;;;;;;;;;5093064;28;20877;-56
2024/01/22 02:47:12;;;;;;;6.47;3.75;;;;;;;;;;5080722;28;20396;-57
2024/01/22 02:49:38;;;;;;;6.18;3.70;;;;;;;;;;5073180;28;20386;-57
2024/01/22 02:52:05;;;;;;;7.95;3.80;;;;;;;;;;5073130;28;20761;-58
2024/01/22 02:54:31;;;;;;;9.50;3.85;;;;;;;;;;5079861;28;20382;-57
2024/01/22 02:56:57;;;;;;;6.65;3.75;;;;;;;;;;5092807;28;20936;-57
2024/01/22 02:59:23;;;;;;;7.57;3.67;;;;;;;;;;5088856;28;20397;-56
2024/01/22 03:01:48;;;;;;;6.85;3.80;;;;;;;;;;5086922;28;20892;-56
2024/01/22 03:04:14;;;;;;;7.28;3.60;;;;;;;;;;5092765;28;20377;-57
2024/01/22 03:06:40;;;;;;;6.93;3.58;;;;;;;;;;5092087;28;20385;-55
2024/01/22 03:09:06;;;;;;;6.60;3.55;;;;;;;;;;5093123;28;20876;-54
2024/01/22 03:11:32;;;;;;;10.20;3.50;;;;;;;;;;5075508;28;20449;-53
2024/01/22 03:13:58;;;;;;;5.93;3.40;;;;;;;;;;5089847;28;20394;-55
2024/01/22 03:16:24;;;;;;;6.22;3.30;;;;;;;;;;5090838;28;20464;-54
2024/01/22 03:18:50;;;;;;;6.57;3.88;;;;;;;;;;5092677;28;20743;-55
2024/01/22 03:21:16;;;;;;;7.18;3.67;;;;;;;;;;5093111;28;20887;-54
2024/01/22 03:23:45;;;;;;;7.85;3.78;;;;;;;;;;5092532;28;20370;-55
2024/01/22 03:26:21;;;;;;;8.55;3.70;;;;;;;;;;5092610;28;20924;-55
2024/01/22 03:28:50;;;;;;;6.75;3.80;;;;;;;;;;5081416;28;20390;-54
2024/01/22 03:31:27;;;;;;;6.75;3.85;;;;;;;;;;5081824;28;20763;-54
2024/01/22 03:33:53;;;;;;;7.73;3.80;;;;;;;;;;5088849;28;20831;-55
2024/01/22 03:36:19;;;;;;;5.63;3.40;;;;;;;;;;5072493;28;20379;-54
2024/01/22 03:38:45;;;;;;;5.20;3.47;;;;;;;;;;5072283;28;20444;-54
2024/01/22 03:41:12;;;;;;;7.90;3.60;;;;;;;;;;5072063;28;20388;-53
2024/01/22 03:43:38;;;;;;;6.55;3.58;;;;;;;;;;5071884;28;20477;-52
2024/01/22 03:46:04;;;;;;;7.20;3.60;;;;;;;;;;5073556;28;20467;-54
2024/01/22 03:48:30;;;;;;;7.07;3.60;;;;;;;;;;5090867;28;20430;-53
2024/01/22 03:50:56;;;;;;;7.07;3.50;;;;;;;;;;5091928;28;20760;-52
2024/01/22 03:53:22;;;;;;;6.97;3.27;;;;;;;;;;5090882;28;20463;-56
2024/01/22 03:55:48;;;;;;;8.57;3.87;;;;;;;;;;5091330;28;20378;-53
2024/01/22 03:58:14;;;;;;;5.70;3.67;;;;;;;;;;5076225;28;20487;-53
2024/01/22 04:00:40;;;;;;;7.22;3.38;;;;;;;;;;5081154;28;20382;-53
2024/01/22 04:03:06;;;;;;;6.40;3.40;;;;;;;;;;5090540;28;20401;-54
2024/01/22 04:05:32;;;;;;;8.13;3.85;;;;;;;;;;5091304;28;20457;-54
2024/01/22 04:07:58;;;;;;;6.00;3.45;;;;;;;;;;5092070;28;20370;-54
2024/01/22 04:10:26;;;;;;;6.72;3.30;;;;;;;;;;5091953;28;20373;-53
2024/01/22 04:12:52;;;;;;;8.43;3.53;;;;;;;;;;5086082;28;20766;-54
2024/01/22 04:15:18;;;;;;;6.73;3.17;;;;;;;;;;5071354;28;20383;-49
2024/01/22 04:17:44;;;;;;;7.68;3.35;;;;;;;;;;5085087;28;20494;-52
2024/01/22 04:20:10;;;;;;;9.75;3.58;;;;;;;;;;5089361;28;20767;-50
2024/01/22 04:22:36;;;;;;;5.57;3.13;;;;;;;;;;5073091;28;20380;-50
2024/01/22 04:25:03;;;;;;;6.97;3.10;;;;;;;;;;5070945;28;20387;-50
2024/01/22 04:27:29;;;;;;;6.65;3.30;;;;;;;;;;5071523;28;20364;-51
2024/01/22 04:29:55;;;;;;;5.20;3.05;;;;;;;;;;5071522;28;20376;-50
2024/01/22 04:32:21;;;;;;;6.35;2.92;;;;;;;;;;5080525;28;20968;-50
2024/01/22 04:34:47;;;;;;;4.60;2.90;;;;;;;;;;5070962;28;20884;-51
2024/01/22 04:37:14;;;;;;;5.90;2.90;;;;;;;;;;5072741;28;20403;-50
2024/01/22 04:39:40;;;;;;;5.60;2.83;;;;;;;;;;5073212;28;20377;-50
2024/01/22 04:42:06;;;;;;;7.47;3.33;;;;;;;;;;5085075;28;20437;-52
2024/01/22 04:44:32;;;;;;;6.85;3.17;;;;;;;;;;5073216;28;20386;-50
2024/01/22 04:46:58;;;;;;;5.88;2.80;;;;;;;;;;5090490;28;20390;-53
2024/01/22 04:49:25;;;;;;;7.97;3.03;;;;;;;;;;5085647;28;20439;-50
2024/01/22 04:51:51;;;;;;;6.07;2.65;;;;;;;;;;5079044;28;20505;-50
2024/01/22 04:54:17;;;;;;;4.82;2.80;;;;;;;;;;5091008;28;20377;-50
2024/01/22 04:56:46;;;;;;;5.45;2.72;;;;;;;;;;5091268;28;20759;-54
2024/01/22 04:59:12;;;;;;;3.87;2.50;;;;;;;;;;5091073;28;20431;-51
2024/01/22 05:01:38;;;;;;;5.82;2.42;;;;;;;;;;5090549;28;20431;-53
2024/01/22 05:04:05;;;;;;;3.90;2.30;;;;;;;;;;5083557;28;20472;-50
2024/01/22 05:06:31;;;;;;;4.35;2.47;;;;;;;;;;5090862;28;20871;-52
2024/01/22 05:08:57;;;;;;;8.47;2.30;;;;;;;;;;5088572;28;20524;-51
2024/01/22 05:11:23;;;;;;;4.47;2.67;;;;;;;;;;5088910;28;20910;-51
2024/01/22 05:13:53;;;;;;;4.60;2.43;;;;;;;;;;5084697;28;20414;-53
2024/01/22 05:16:20;;;;;;;5.37;2.40;;;;;;;;;;5089810;28;20382;-50
2024/01/22 05:18:47;;;;;;;6.43;2.40;;;;;;;;;;5089387;28;20401;-50
2024/01/22 05:21:13;;;;;;;6.18;2.40;;;;;;;;;;5089079;28;20548;-52
2024/01/22 05:23:39;;;;;;;6.18;2.63;;;;;;;;;;5086540;28;20410;-50
2024/01/22 05:26:06;;;;;;;4.20;2.22;;;;;;;;;;5078824;28;20408;-57
2024/01/22 05:28:32;;;;;;;3.90;1.90;;;;;;;;;;5079288;28;20374;-53
2024/01/22 05:30:58;;;;;;;5.80;2.13;;;;;;;;;;5085879;28;20413;-56
2024/01/22 05:33:24;;;;;;;4.30;1.92;;;;;;;;;;5075677;28;20407;-57
2024/01/22 05:35:50;;;;;;;5.88;1.92;;;;;;;;;;5085487;28;20949;-57
2024/01/22 05:38:16;;;;;;;4.77;1.80;;;;;;;;;;5088977;28;20414;-57
2024/01/22 05:40:42;;;;;;;4.37;1.77;;;;;;;;;;5089702;28;20384;-56
2024/01/22 05:43:08;;;;;;;4.40;1.70;;;;;;;;;;5089585;28;20386;-56
2024/01/22 05:45:34;;;;;;;3.90;1.83;;;;;;;;;;5081450;28;20869;-57
2024/01/22 05:48:00;;;;;;;3.43;1.70;;;;;;;;;;5084233;28;20492;-58
2024/01/22 05:50:26;;;;;;;4.72;2.13;;;;;;;;;;5084352;28;20415;-57
2024/01/22 05:52:53;;;;;;;4.50;1.80;;;;;;;;;;5087887;28;20455;-57
2024/01/22 05:55:19;;;;;;;4.22;2.08;;;;;;;;;;5085559;28;20912;-57
2024/01/22 05:57:45;;;;;;;4.15;1.65;;;;;;;;;;5081838;28;20388;-58
2024/01/22 06:00:13;;;;;;;5.03;1.45;;;;;;;;;;5084493;28;20465;-57
2024/01/22 06:02:42;;;;;;;4.03;1.73;;;;;;;;;;5086559;28;20824;-53
2024/01/22 06:05:09;;;;;;;3.08;1.73;;;;;;;;;;5068808;28;20473;-57
2024/01/22 06:07:36;;;;;;;2.80;1.30;;;;;;;;;;5088392;28;20447;-57
2024/01/22 06:10:01;;;;;;;3.75;1.83;;;;;;;;;;5085741;28;20473;-56
2024/01/22 06:12:27;;;;;;;5.03;1.55;;;;;;;;;;5085021;28;20411;-56
2024/01/22 06:14:53;;;;;;;2.78;1.50;;;;;;;;;;5081942;28;20414;-58
2024/01/22 06:17:19;;;;;;;3.92;1.52;;;;;;;;;;5086256;28;20387;-56
2024/01/22 06:19:45;;;;;;;2.85;1.70;;;;;;;;;;5088423;28;20391;-58
2024/01/22 06:22:12;;;;;;;3.50;1.90;;;;;;;;;;5084415;28;20398;-57
2024/01/22 06:24:39;;;;;;;4.07;1.45;;;;;;;;;;5089201;28;20945;-57
2024/01/22 06:27:05;;;;;;;2.55;1.50;;;;;;;;;;5089858;28;20468;-56
2024/01/22 06:29:31;;;;;;;3.22;1.60;;;;;;;;;;5088071;28;20398;-56
2024/01/22 06:31:58;;;;;;;3.17;1.73;;;;;;;;;;5090037;28;20402;-57
2024/01/22 06:34:24;;;;;;;3.10;1.52;;;;;;;;;;5089002;28;20417;-58
2024/01/22 06:36:50;;;;;;;4.50;1.67;;;;;;;;;;5092510;28;20744;-53
2024/01/22 06:39:15;;;;;;;3.00;1.50;;;;;;;;;;5093404;28;20793;-50
2024/01/22 06:41:42;;;;;;;4.22;1.60;;;;;;;;;;5092691;28;20518;-53
2024/01/22 06:44:08;;;;;;;4.47;1.63;;;;;;;;;;5093022;28;20396;-54
2024/01/22 06:46:34;;;;;;;6.63;1.60;;;;;;;;;;5091632;28;20890;-54
2024/01/22 06:49:00;;;;;;;3.80;1.73;;;;;;;;;;5092729;28;20433;-54
2024/01/22 06:51:26;;;;;;;3.95;1.55;;;;;;;;;;5072961;28;20498;-54
2024/01/22 06:53:52;;;;;;;3.50;1.67;;;;;;;;;;5092829;28;20378;-54
2024/01/22 06:56:18;;;;;;;4.32;1.50;;;;;;;;;;5092503;28;20382;-54
2024/01/22 06:58:44;;;;;;;4.07;1.50;;;;;;;;;;5092859;28;20382;-54
2024/01/22 07:01:10;;;;;;;4.90;1.70;;;;;;;;;;5093000;28;20378;-54
2024/01/22 07:03:36;;;;;;;3.20;1.40;;;;;;;;;;5090818;28;20405;-54
2024/01/22 07:06:03;;;;;;;4.35;1.90;;;;;;;;;;5092131;28;20440;-54
2024/01/22 07:08:29;;;;;;;2.92;1.40;;;;;;;;;;5073931;28;20461;-54
2024/01/22 07:10:55;;;;;;;2.72;1.63;;;;;;;;;;5085568;28;20900;-53
2024/01/22 07:13:22;;;;;;;2.93;1.37;;;;;;;;;;5092323;28;20871;-52
2024/01/22 07:15:47;;;;;;;4.10;1.50;;;;;;;;;;5092040;28;20559;-54
2024/01/22 07:18:13;;;;;;;4.53;1.92;;;;;;;;;;5084950;28;21975;-54
2024/01/22 07:20:40;;;;;;;3.90;1.48;;;;;;;;;;5084827;28;20397;-53
2024/01/22 07:23:06;;;;;;;2.53;1.50;;;;;;;;;;5092040;28;20378;-56
2024/01/22 07:25:36;;;;;;;3.53;1.50;;;;;;;;;;5092211;28;20381;-53
2024/01/22 07:28:02;;;;;;;2.75;1.38;;;;;;;;;;5092647;28;20736;-54
2024/01/22 07:30:28;;;;;;;3.60;1.60;;;;;;;;;;5087097;28;20384;-54
2024/01/22 07:32:54;;;;;;;3.28;1.50;;;;;;;;;;5086402;28;20417;-54
2024/01/22 07:35:20;;;;;;;3.00;1.30;;;;;;;;;;5089097;28;20751;-53
2024/01/22 07:37:46;;;;;;;3.27;1.30;;;;;;;;;;5091604;28;20422;-52
2024/01/22 07:40:13;;;;;;;4.30;1.42;;;;;;;;;;5089040;28;20887;-52
2024/01/22 07:42:40;;;;;;;3.33;1.17;;;;;;;;;;5090650;28;20394;-54
2024/01/22 07:45:09;;;;;;;3.23;1.33;;;;;;;;;;5091220;28;20535;-54
2024/01/22 07:47:36;;;;;;;3.47;1.40;;;;;;;;;;5091280;28;20418;-52
2024/01/22 07:50:05;;;;;;;2.70;1.30;;;;;;;;;;5091119;28;20401;-51
2024/01/22 07:52:33;;;;;;;2.88;1.20;;;;;;;;;;5091162;28;20445;-53
2024/01/22 07:54:59;;;;;;;2.80;1.40;;;;;;;;;;5078520;28;20381;-52
2024/01/22 07:57:25;;;;;;;2.83;1.40;;;;;;;;;;5084475;28;20414;-52
2024/01/22 07:59:51;;;;;;;3.45;1.63;;;;;;;;;;5091299;28;20380;-52
2024/01/22 08:02:17;;;;;;;2.00;1.17;;;;;;;;;;5086223;28;20427;-52
2024/01/22 08:04:43;;;;;;;3.90;1.50;;;;;;;;;;5086614;28;20435;-52
2024/01/22 08:07:09;;;;;;;2.65;1.52;;;;;;;;;;5090877;28;20378;-52
2024/01/22 08:09:35;;;;;;;4.93;1.80;;;;;;;;;;5089549;28;20491;-51
2024/01/22 08:12:01;;;;;;;5.07;1.77;;;;;;;;;;5087537;28;20441;-52
2024/01/22 08:14:27;;;;;;;3.10;1.48;;;;;;;;;;5090729;28;20831;-50
2024/01/22 08:16:53;;;;;;;3.08;1.50;;;;;;;;;;5084592;28;20481;-50
2024/01/22 08:19:19;;;;;;;2.80;1.50;;;;;;;;;;5090145;28;20378;-54
2024/01/22 08:21:45;;;;;;;3.28;1.40;;;;;;;;;;5088666;28;20413;-51
2024/01/22 08:24:11;;;;;;;5.07;1.85;;;;;;;;;;5088926;28;20397;-50
2024/01/22 08:26:37;;;;;;;4.35;2.17;;;;;;;;;;5090626;28;20377;-54
2024/01/22 08:29:03;;;;;;;2.38;1.40;;;;;;;;;;5087794;28;20406;-54
2024/01/22 08:31:29;;;;;;;4.50;2.05;;;;;;;;;;5090478;28;20438;-53
2024/01/22 08:33:56;;;;;;;3.30;1.90;;;;;;;;;;5086649;28;20406;-51
2024/01/22 08:36:22;;;;;;;3.65;1.85;;;;;;;;;;5088322;28;20501;-51
2024/01/22 08:38:48;;;;;;;5.27;1.80;;;;;;;;;;5090652;28;20465;-53
2024/01/22 08:41:14;;;;;;;5.43;1.90;;;;;;;;;;5088573;28;20481;-50
2024/01/22 08:43:40;;;;;;;4.78;1.80;;;;;;;;;;5086272;28;20406;-51
2024/01/22 08:46:06;;;;;;;3.75;1.80;;;;;;;;;;5090384;28;20385;-49
2024/01/22 08:48:32;;;;;;;4.35;1.90;;;;;;;;;;5089516;28;20390;-51
2024/01/22 08:50:58;;;;;;;4.90;2.08;;;;;;;;;;5090034;28;20463;-52
2024/01/22 08:53:24;;;;;;;5.03;1.90;;;;;;;;;;5089996;28;20402;-51
2024/01/22 08:55:50;;;;;;;3.08;1.52;;;;;;;;;;5088514;28;20410;-53
2024/01/22 08:58:16;;;;;;;4.68;2.25;;;;;;;;;;5085979;28;20408;-51
2024/01/22 09:00:42;;;;;;;6.18;1.60;;;;;;;;;;5090273;28;20374;-50
2024/01/22 09:03:08;;;;;;;4.95;1.90;;;;;;;;;;5089958;28;20393;-49
2024/01/22 09:05:34;;;;;;;6.05;1.90;;;;;;;;;;5087267;28;20412;-51
2024/01/22 09:08:00;;;;;;;3.38;1.65;;;;;;;;;;5090448;28;20389;-48
2024/01/22 09:10:26;;;;;;;6.00;1.77;;;;;;;;;;5087377;28;20408;-51
2024/01/22 09:12:53;;;;;;;4.65;1.95;;;;;;;;;;5071611;28;20413;-53
2024/01/22 09:15:19;;;;;;;4.45;1.80;;;;;;;;;;5089828;28;20438;-49
2024/01/22 09:17:46;;;;;;;3.05;1.58;;;;;;;;;;5089792;28;20458;-51
2024/01/22 09:20:12;;;;;;;2.97;1.52;;;;;;;;;;5090203;28;20385;-50
2024/01/22 09:22:38;;;;;;;4.32;1.55;;;;;;;;;;5089329;28;20402;-50
2024/01/22 09:25:05;;;;;;;4.35;1.70;;;;;;;;;;5089491;28;20826;-51
2024/01/22 09:27:31;;;;;;;3.70;1.30;;;;;;;;;;5086835;28;20436;-48
2024/01/22 09:29:58;;;;;;;3.42;1.40;;;;;;;;;;5090020;28;20413;-49
2024/01/22 09:32:25;;;;;;;4.68;1.60;;;;;;;;;;5090072;28;20398;-49
2024/01/22 09:34:51;;;;;;;2.35;1.33;;;;;;;;;;5089784;28;20389;-51
2024/01/22 09:37:17;;;;;;;2.35;1.50;;;;;;;;;;5089675;28;20405;-48
2024/01/22 09:39:44;;;;;;;3.40;1.60;;;;;;;;;;5089832;28;20387;-50
2024/01/22 09:42:14;;;;;;;2.47;1.27;;;;;;;;;;5088442;28;20412;-54
2024/01/22 09:44:40;;;;;;;1.80;1.20;;;;;;;;;;5085345;28;20401;-49
2024/01/22 09:47:07;;;;;;;2.47;1.20;;;;;;;;;;5088941;28;20459;-50
2024/01/22 09:49:33;;;;;;;3.72;1.30;;;;;;;;;;5089649;28;20400;-51
2024/01/22 09:51:59;;;;;;;3.15;1.17;;;;;;;;;;5088873;28;20406;-50
2024/01/22 09:54:28;;;;;;;2.40;1.30;;;;;;;;;;5089523;28;20378;-50
2024/01/22 09:56:55;;;;;;;3.03;1.45;;;;;;;;;;5088044;28;20480;-50
2024/01/22 09:59:25;;;;;;;2.20;1.08;;;;;;;;;;5089440;28;20985;-50
2024/01/22 10:01:51;;;;;;;4.88;1.30;;;;;;;;;;5079848;28;20384;-51
2024/01/22 10:04:18;;;;;;;4.20;1.10;;;;;;;;;;5086443;28;20398;-50
2024/01/22 10:06:45;;;;;;;1.70;1.10;;;;;;;;;;5086993;28;20402;-54
2024/01/22 10:09:17;;;;;;;2.85;1.25;;;;;;;;;;5089759;28;20439;-53
2024/01/22 10:11:43;;;;;;;2.55;1.10;;;;;;;;;;5091375;28;20763;-54
2024/01/22 10:14:10;;;;;;;2.47;0.90;;;;;;;;;;5088285;28;20418;-54
2024/01/22 10:16:39;;;;;;;2.90;1.20;;;;;;;;;;5091761;28;20414;-53
2024/01/22 10:19:08;;;;;;;2.15;1.00;;;;;;;;;;5093222;28;20374;-52
2024/01/22 10:21:34;;;;;;;3.08;1.05;;;;;;;;;;5088652;28;20398;-54
2024/01/22 10:24:01;;;;;;;3.40;1.30;;;;;;;;;;5092902;28;20887;-52
2024/01/22 10:26:28;;;;;;;2.92;0.95;;;;;;;;;;5091036;28;20467;-54
2024/01/22 10:28:54;;;;;;;2.58;0.98;;;;;;;;;;5091453;28;20373;-55
2024/01/22 10:31:20;;;;;;;3.22;1.20;;;;;;;;;;5092841;28;20386;-51
2024/01/22 10:33:48;;;;;;;3.30;1.10;;;;;;;;;;5090303;28;20390;-52
2024/01/22 10:36:18;;;;;;;1.40;0.90;;;;;;;;;;5088302;28;20536;-53
2024/01/22 10:38:45;;;;;;;1.75;0.90;;;;;;;;;;5092863;28;20378;-51
2024/01/22 10:41:18;;;;;;;2.30;1.10;;;;;;;;;;5090880;28;20393;-54
2024/01/22 10:43:44;;;;;;;4.30;0.90;;;;;;;;;;5092153;28;20385;-53
2024/01/22 10:46:11;;;;;;;2.42;0.80;;;;;;;;;;5092077;28;20393;-52
2024/01/22 10:48:38;;;;;;;2.85;0.90;;;;;;;;;;5074373;28;20447;-51
2024/01/22 10:51:04;;;;;;;1.80;0.90;;;;;;;;;;5092356;28;20413;-52
2024/01/22 10:53:31;;;;;;;2.03;0.90;;;;;;;;;;5092047;28;20401;-51
2024/01/22 10:56:00;;;;;;;1.65;0.90;;;;;;;;;;5092677;28;20381;-51
2024/01/22 10:58:27;;;;;;;1.90;0.77;;;;;;;;;;5090952;28;20396;-51
2024/01/22 11:00:55;;;;;;;1.70;0.80;;;;;;;;;;5089297;28;20936;-53
2024/01/22 11:03:22;;;;;;;1.80;0.85;;;;;;;;;;5092020;28;20381;-51
2024/01/22 11:05:51;;;;;;;4.47;0.80;;;;;;;;;;5089516;28;20429;-51
2024/01/22 11:08:18;;;;;;;1.30;0.70;;;;;;;;;;5070457;28;20402;-54
2024/01/22 11:10:44;;;;;;;1.60;0.93;;;;;;;;;;5082311;28;20434;-51
2024/01/22 11:13:13;;;;;;;1.65;0.77;;;;;;;;;;5091799;28;20454;-51
2024/01/22 11:15:39;;;;;;;2.03;1.00;;;;;;;;;;5086414;28;20930;-52
2024/01/22 11:18:06;;;;;;;2.80;0.90;;;;;;;;;;5092066;28;20367;-51
2024/01/22 11:20:32;;;;;;;1.80;0.90;;;;;;;;;;5085347;28;20493;-52
2024/01/22 11:23:03;;;;;;;2.80;0.90;;;;;;;;;;5086761;28;20961;-51
2024/01/22 11:25:30;;;;;;;3.15;0.95;;;;;;;;;;5069247;28;20390;-52
2024/01/22 11:28:00;;;;;;;1.60;0.93;;;;;;;;;;5090234;28;20436;-50
2024/01/22 11:30:27;;;;;;;3.05;0.90;;;;;;;;;;5091839;28;20524;-53
2024/01/22 11:32:53;;;;;;;2.22;0.95;;;;;;;;;;5091687;28;20528;-52
2024/01/22 11:35:33;;;;;;;2.22;0.80;;;;;;;;;;5089392;28;20386;-54
2024/01/22 11:37:59;;;;;;;1.77;0.75;;;;;;;;;;5088508;28;20413;-51
2024/01/22 11:40:44;;;;;;;1.23;0.80;;;;;;;;;;5072150;28;20489;-52
2024/01/22 11:43:10;;;;;;;2.47;0.85;;;;;;;;;;5091645;28;20390;-53
2024/01/22 11:45:36;;;;;;;2.40;0.98;;;;;;;;;;5088911;28;20398;-52
2024/01/22 11:48:02;;;;;;;2.08;0.82;;;;;;;;;;5091731;28;20385;-51
2024/01/22 11:50:28;;;;;;;1.38;0.70;;;;;;;;;;5090971;28;20488;-54
2024/01/22 11:53:00;;;;;;;1.83;0.77;;;;;;;;;;5072935;28;20422;-53
2024/01/22 11:55:26;;;;;;;2.50;0.80;;;;;;;;;;5091203;28;20890;-55
2024/01/22 11:57:52;;;;;;;1.38;0.70;;;;;;;;;;5089600;28;20374;-56
2024/01/22 12:00:22;;;;;;;1.50;0.65;;;;;;;;;;5091257;28;20465;-54
2024/01/22 12:02:50;;;;;;;1.75;0.93;;;;;;;;;;5084596;28;20400;-53
2024/01/22 12:05:19;;;;;;;1.83;0.80;;;;;;;;;;5085097;28;20920;-53
2024/01/22 12:07:46;;;;;;;2.20;0.70;;;;;;;;;;5088443;28;20390;-52
2024/01/22 12:10:19;;;;;;;1.77;0.60;;;;;;;;;;5091067;28;20464;-54
2024/01/22 12:12:56;;;;;;;1.48;0.73;;;;;;;;;;5088869;28;20398;-52
2024/01/22 12:15:23;;;;;;;3.30;0.85;;;;;;;;;;5091036;28;20394;-54
2024/01/22 12:17:49;;;;;;;1.42;0.70;;;;;;;;;;5088589;28;20420;-55
2024/01/22 12:20:16;;;;;;;1.52;0.80;;;;;;;;;;5088770;28;20406;-54
2024/01/22 12:22:42;;;;;;;2.13;0.70;;;;;;;;;;5090937;28;20905;-54
2024/01/22 12:25:09;;;;;;;1.40;0.70;;;;;;;;;;5090316;28;20385;-50
2024/01/22 12:27:36;;;;;;;1.38;0.75;;;;;;;;;;5089169;28;20408;-51
2024/01/22 12:30:09;;;;;;;1.55;0.70;;;;;;;;;;5088805;28;20497;-51
2024/01/22 12:32:35;;;;;;;2.80;0.70;;;;;;;;;;5090647;28;20501;-52
2024/01/22 12:35:02;;;;;;;0.90;0.50;;;;;;;;;;5089318;28;20378;-51
2024/01/22 12:37:29;;;;;;;2.35;0.73;;;;;;;;;;5090143;28;20798;-52
2024/01/22 12:40:14;;;;;;;0.95;0.60;;;;;;;;;;5077915;28;20400;-52
2024/01/22 12:42:44;;;;;;;2.00;0.70;;;;;;;;;;5090596;28;20460;-54
2024/01/22 12:45:19;;;;;;;1.42;0.73;;;;;;;;;;5087840;28;21084;-54
2024/01/22 12:47:46;;;;;;;1.03;0.50;;;;;;;;;;5088810;28;20531;-53
2024/01/22 12:50:13;;;;;;;1.42;0.70;;;;;;;;;;5087790;28;20474;-51
2024/01/22 12:52:40;;;;;;;0.90;0.47;;;;;;;;;;5090408;28;20402;-51
2024/01/22 12:55:07;;;;;;;1.80;0.80;;;;;;;;;;5087667;28;20413;-54
2024/01/22 12:57:33;;;;;;;3.17;0.80;;;;;;;;;;5090560;28;20428;-52
2024/01/22 12:59:59;;;;;;;2.53;0.70;;;;;;;;;;5087933;28;20435;-51
2024/01/22 13:02:25;;;;;;;2.37;0.70;;;;;;;;;;5088194;28;20875;-52
2024/01/22 13:04:51;;;;;;;1.73;0.65;;;;;;;;;;5089376;28;20378;-51
2024/01/22 13:07:17;;;;;;;1.52;0.60;;;;;;;;;;5069957;28;20409;-54
2024/01/22 13:09:43;;;;;;;0.90;0.50;;;;;;;;;;5086790;28;20685;-51
2024/01/22 13:12:09;;;;;;;1.90;0.70;;;;;;;;;;5087982;28;20405;-51
2024/01/22 13:14:35;;;;;;;1.85;0.82;;;;;;;;;;5084867;28;20475;-51
2024/01/22 13:17:03;;;;;;;1.67;0.73;;;;;;;;;;5086158;28;20405;-51
2024/01/22 13:19:29;;;;;;;1.27;0.80;;;;;;;;;;5089400;28;20434;-52
2024/01/22 13:21:55;;;;;;;2.05;0.80;;;;;;;;;;5086883;28;20405;-52
2024/01/22 13:24:21;;;;;;;1.60;0.70;;;;;;;;;;5089849;28;20370;-52
2024/01/22 13:26:47;;;;;;;2.77;0.77;;;;;;;;;;5085744;28;20406;-50
2024/01/22 13:29:13;;;;;;;1.63;0.70;;;;;;;;;;5085725;28;20409;-53
2024/01/22 13:31:39;;;;;;;1.50;0.70;;;;;;;;;;5089827;28;20883;-53
2024/01/22 13:34:05;;;;;;;1.60;1.00;;;;;;;;;;5088766;28;20393;-51
2024/01/22 13:36:31;;;;;;;2.78;0.63;;;;;;;;;;5090246;28;20519;-57
2024/01/22 13:38:57;;;;;;;1.40;0.80;;;;;;;;;;5088347;28;20398;-57
2024/01/22 13:41:29;;;;;;;1.98;0.70;;;;;;;;;;5089454;28;20591;-54
2024/01/22 13:43:55;;;;;;;1.17;0.60;;;;;;;;;;5087405;28;20485;-56
2024/01/22 13:46:22;;;;;;;1.92;0.70;;;;;;;;;;5081094;28;20402;-56
2024/01/22 13:48:48;;;;;;;2.05;0.90;;;;;;;;;;5093568;28;20370;-53
2024/01/22 13:51:15;;;;;;;2.72;0.80;;;;;;;;;;5092906;28;20389;-56
2024/01/22 13:53:44;;;;;;;2.25;0.77;;;;;;;;;;5090657;28;20421;-57
2024/01/22 13:56:10;;;;;;;2.67;1.00;;;;;;;;;;5094094;28;20398;-56
2024/01/22 13:58:36;;;;;;;1.85;0.70;;;;;;;;;;5093829;28;20393;-54
2024/01/22 14:01:02;;;;;;;1.20;0.60;;;;;;;;;;5093390;28;20370;-57
2024/01/22 14:03:28;;;;;;;2.63;0.70;;;;;;;;;;5093236;28;20413;-57
2024/01/22 14:05:53;;;;;;;2.83;1.00;;;;;;;;;;5093392;28;20397;-56
2024/01/22 14:08:20;;;;;;;2.58;0.93;;;;;;;;;;5087875;28;20406;-57
2024/01/22 14:10:46;;;;;;;1.40;0.70;;;;;;;;;;5090514;28;20438;-57
2024/01/22 14:13:12;;;;;;;2.30;0.82;;;;;;;;;;5091904;28;21829;-57
2024/01/22 14:15:38;;;;;;;2.85;0.80;;;;;;;;;;5092930;28;20401;-55
2024/01/22 14:18:04;;;;;;;1.70;0.85;;;;;;;;;;5093246;28;20386;-58
2024/01/22 14:20:30;;;;;;;2.08;0.70;;;;;;;;;;5093287;28;20406;-56
2024/01/22 14:22:56;;;;;;;3.10;0.90;;;;;;;;;;5092487;28;20893;-56
2024/01/22 14:25:24;;;;;;;3.17;0.93;;;;;;;;;;5079466;28;20398;-57
2024/01/22 14:27:50;;;;;;;2.50;0.95;;;;;;;;;;5093215;28;20370;-57
2024/01/22 14:30:16;;;;;;;3.23;1.13;;;;;;;;;;5090341;28;20426;-56
2024/01/22 14:32:42;;;;;;;2.10;0.90;;;;;;;;;;5092076;28;20402;-57
2024/01/22 14:35:08;;;;;;;2.23;0.83;;;;;;;;;;5092594;28;20370;-57
2024/01/22 14:37:34;;;;;;;2.00;0.88;;;;;;;;;;5092607;28;20818;-57
2024/01/22 14:40:00;;;;;;;2.70;0.90;;;;;;;;;;5092999;28;20366;-58